Time;durP1;ratioP1;P1;durP2;ratioP2;P2;SDS_P1;SDS_P2;PMS_P1;PMS_P2;Temp;Humidity;BMP_temperature;BMP_pressure;BME280_temperature;BME280_humidity;BME280_pressure;Samples;Min_cycle;Max_cycle;Signal;HPM_P1;HPM_P2
2022/01/28 00:01:23;;;;;;;4.23;3.83;;;5.70;84.20;;;;;;5060564;28;20458;-50
2022/01/28 00:04:00;;;;;;;4.57;3.57;;;5.70;84.10;;;;;;5056807;28;20902;-49
2022/01/28 00:06:27;;;;;;;5.17;3.33;;;5.70;84.20;;;;;;5064258;28;20454;-49
2022/01/28 00:08:53;;;;;;;5.20;2.90;;;5.70;84.00;;;;;;5060041;28;20459;-50
2022/01/28 00:11:20;;;;;;;3.20;2.90;;;5.70;83.90;;;;;;5061084;28;20451;-49
2022/01/28 00:13:54;;;;;;;5.90;3.93;;;5.80;83.70;;;;;;5067764;28;20459;-50
2022/01/28 00:38:34;;;;;;;2.83;2.63;;;5.80;82.80;;;;;;5063144;28;20466;-49
2022/01/28 00:41:01;;;;;;;4.33;2.73;;;5.80;82.60;;;;;;5067272;28;20447;-49
2022/01/28 00:43:28;;;;;;;3.10;2.43;;;5.90;82.70;;;;;;5060152;28;20519;-49
2022/01/28 00:45:55;;;;;;;5.90;3.07;;;5.90;82.40;;;;;;5051000;28;20494;-49
2022/01/28 00:48:22;;;;;;;3.60;3.30;;;5.90;82.40;;;;;;5064225;28;20517;-49
2022/01/28 00:50:49;;;;;;;2.50;2.17;;;5.90;82.40;;;;;;5061060;28;20450;-50
2022/01/28 00:53:16;;;;;;;6.17;3.10;;;5.90;82.00;;;;;;5059080;28;20487;-50
2022/01/28 00:55:43;;;;;;;4.53;2.97;;;5.90;82.00;;;;;;5055550;28;20582;-50
2022/01/28 00:58:09;;;;;;;5.17;3.07;;;5.90;81.90;;;;;;5044391;28;20460;-50
2022/01/28 01:00:36;;;;;;;2.97;2.60;;;5.90;81.60;;;;;;5061882;28;20462;-50
2022/01/28 01:03:03;;;;;;;2.23;2.03;;;5.90;81.50;;;;;;5077190;28;20468;-49
2022/01/28 01:05:32;;;;;;;4.50;2.87;;;5.90;81.70;;;;;;5062418;28;20505;-50
2022/01/28 01:08:01;;;;;;;3.20;2.40;;;5.90;81.30;;;;;;5059904;28;20477;-50
2022/01/28 01:10:28;;;;;;;2.63;2.13;;;5.90;81.30;;;;;;5076800;28;20555;-49
2022/01/28 01:12:55;;;;;;;2.87;2.27;;;5.90;81.30;;;;;;5060436;28;20490;-49
2022/01/28 01:15:26;;;;;;;2.30;2.07;;;5.90;80.90;;;;;;5059614;28;20465;-49
2022/01/28 01:25:29;;;;;;;2.40;2.20;;;5.70;81.20;;;;;;5040918;28;20482;-47
2022/01/28 01:27:58;;;;;;;2.37;2.17;;;5.70;81.40;;;;;;5051802;28;20463;-47
2022/01/28 01:30:31;;;;;;;4.20;3.10;;;5.60;81.80;;;;;;5042646;28;20461;-47
2022/01/28 01:32:59;;;;;;;2.83;2.50;;;5.60;81.80;;;;;;5016489;28;20470;-47
2022/01/28 01:35:25;;;;;;;3.60;2.60;;;5.50;82.10;;;;;;5027861;28;20459;-47
2022/01/28 01:37:52;;;;;;;2.60;1.80;;;5.60;82.00;;;;;;5043101;28;20459;-47
2022/01/28 01:40:26;;;;;;;2.47;2.27;;;5.50;82.20;;;;;;5042658;28;20831;-47
2022/01/28 01:43:06;;;;;;;2.90;2.37;;;5.60;82.20;;;;;;5041415;28;20489;-47
2022/01/28 01:53:31;;;;;;;4.73;2.53;;;5.70;82.90;;;;;;5037853;28;20463;-46
2022/01/28 01:55:58;;;;;;;1.83;1.60;;;5.70;84.40;;;;;;5041118;28;20798;-47
2022/01/28 01:58:30;;;;;;;1.97;1.60;;;5.70;85.40;;;;;;5038676;28;21578;-47
2022/01/28 02:00:59;;;;;;;3.60;2.20;;;5.70;85.80;;;;;;5043522;28;20471;-47
2022/01/28 02:03:28;;;;;;;4.10;1.77;;;5.70;85.70;;;;;;5040326;28;20479;-47
2022/01/28 02:05:58;;;;;;;2.10;1.83;;;5.70;86.00;;;;;;5042167;28;20486;-47
2022/01/28 02:08:26;;;;;;;5.00;3.30;;;5.60;85.90;;;;;;5026781;28;20550;-47
2022/01/28 02:10:58;;;;;;;3.67;1.87;;;5.60;86.30;;;;;;5041530;28;20531;-47
2022/01/28 02:13:26;;;;;;;2.13;1.80;;;5.60;86.10;;;;;;5025674;28;23256;-48
2022/01/28 02:15:54;;;;;;;5.60;2.63;;;5.60;85.80;;;;;;5044008;28;20467;-48
2022/01/28 02:18:21;;;;;;;4.83;1.80;;;5.50;85.80;;;;;;5040431;28;20479;-48
2022/01/28 02:20:49;;;;;;;1.97;1.70;;;5.60;85.30;;;;;;5043591;28;20477;-48
2022/01/28 02:23:17;;;;;;;3.23;2.07;;;5.60;85.00;;;;;;5042078;28;20498;-48
2022/01/28 02:25:44;;;;;;;1.90;1.50;;;5.60;85.10;;;;;;5038799;28;20490;-48
2022/01/28 02:28:14;;;;;;;2.43;1.80;;;5.50;85.10;;;;;;5039065;28;20455;-48
2022/01/28 02:30:41;;;;;;;2.27;1.40;;;5.60;84.70;;;;;;5040385;28;21625;-47
2022/01/28 02:33:11;;;;;;;4.53;2.87;;;5.50;85.00;;;;;;5053796;28;20496;-47
2022/01/28 02:35:41;;;;;;;1.33;1.23;;;5.50;84.50;;;;;;5027712;28;20631;-47
2022/01/28 02:38:12;;;;;;;6.17;1.90;;;5.50;84.70;;;;;;5041825;28;20461;-46
2022/01/28 02:40:44;;;;;;;1.50;1.40;;;5.50;85.00;;;;;;5042692;28;20474;-47
2022/01/28 02:45:44;;;;;;;4.80;1.97;;;5.40;85.20;;;;;;5040162;28;20481;-46
2022/01/28 02:48:18;;;;;;;2.40;1.90;;;5.40;85.40;;;;;;5040294;28;20462;-47
2022/01/28 02:51:01;;;;;;;2.90;1.97;;;5.30;85.20;;;;;;5029139;28;20465;-47
2022/01/28 02:53:38;;;;;;;1.63;1.53;;;5.30;85.30;;;;;;5057148;28;20832;-47
2022/01/28 02:58:44;;;;;;;3.53;1.80;;;5.30;85.40;;;;;;5040005;28;20467;-47
2022/01/28 03:01:13;;;;;;;4.13;2.30;;;5.30;85.10;;;;;;5039887;28;20452;-47
2022/01/28 03:03:41;;;;;;;2.67;1.70;;;5.30;85.00;;;;;;5040948;28;20566;-47
2022/01/28 03:06:09;;;;;;;2.50;1.37;;;5.30;84.70;;;;;;5020242;28;20483;-46
2022/01/28 03:08:36;;;;;;;5.57;1.87;;;5.30;84.70;;;;;;5053373;28;20459;-47
2022/01/28 03:13:58;;;;;;;8.30;1.70;;;5.30;84.10;;;;;;5037738;28;20466;-47
2022/01/28 03:16:23;;;;;;;4.10;1.73;;;5.30;84.30;;;;;;5036965;28;20461;-47
2022/01/28 03:23:57;;;;;;;1.73;1.60;;;5.30;84.00;;;;;;5035289;28;20502;-47
2022/01/28 03:26:26;;;;;;;3.23;1.90;;;5.40;84.00;;;;;;5038016;28;20501;-47
2022/01/28 03:28:56;;;;;;;4.10;1.80;;;5.30;84.30;;;;;;5042344;28;21010;-47
2022/01/28 03:31:23;;;;;;;3.67;1.47;;;5.40;84.30;;;;;;5042331;28;20462;-47
2022/01/28 03:33:50;;;;;;;4.00;1.63;;;5.40;84.30;;;;;;5044677;28;20927;-47
2022/01/28 03:36:17;;;;;;;4.90;1.90;;;5.50;83.80;;;;;;5058204;28;20485;-50
2022/01/28 03:38:47;;;;;;;3.80;1.60;;;5.50;83.60;;;;;;5041166;28;20935;-50
2022/01/28 03:41:18;;;;;;;2.37;1.50;;;5.50;83.00;;;;;;5038618;28;20462;-50
2022/01/28 03:43:48;;;;;;;8.27;2.23;;;5.50;82.90;;;;;;5039272;28;20447;-50
2022/01/28 03:46:16;;;;;;;2.70;2.17;;;5.50;82.70;;;;;;5028309;28;20485;-50
2022/01/28 03:48:43;;;;;;;6.70;2.30;;;5.60;82.10;;;;;;5041801;28;20538;-50
2022/01/28 03:51:10;;;;;;;12.27;2.20;;;5.60;82.00;;;;;;5038447;28;20470;-50
2022/01/28 03:53:37;;;;;;;5.23;2.00;;;5.60;82.00;;;;;;5032332;28;20455;-50
2022/01/28 03:56:04;;;;;;;2.67;1.80;;;5.60;81.80;;;;;;5042150;28;21008;-50
2022/01/28 03:58:30;;;;;;;2.80;1.57;;;5.50;81.90;;;;;;5041347;28;20455;-50
2022/01/28 04:00:58;;;;;;;2.73;1.90;;;5.50;82.20;;;;;;5042767;28;20454;-50
2022/01/28 04:11:31;;;;;;;2.60;1.70;;;5.50;81.50;;;;;;5038520;28;20462;-50
2022/01/28 04:14:10;;;;;;;5.60;2.67;;;5.50;80.90;;;;;;5037526;28;20455;-50
2022/01/28 04:19:23;;;;;;;4.87;2.57;;;5.40;81.10;;;;;;5042957;28;20474;-50
2022/01/28 04:21:50;;;;;;;3.93;1.60;;;5.40;80.70;;;;;;5037747;28;20458;-50
2022/01/28 04:24:17;;;;;;;5.70;1.70;;;5.40;80.80;;;;;;5040872;28;20486;-50
2022/01/28 04:26:44;;;;;;;2.50;1.70;;;5.40;80.00;;;;;;5024102;28;20692;-49
2022/01/28 04:29:12;;;;;;;4.50;1.70;;;5.40;80.00;;;;;;5056006;28;20461;-50
2022/01/28 04:31:45;;;;;;;2.30;1.53;;;5.40;79.60;;;;;;5041645;28;20459;-50
2022/01/28 04:34:16;;;;;;;4.17;2.00;;;5.40;79.70;;;;;;5025256;28;20828;-50
2022/01/28 04:36:58;;;;;;;9.73;2.27;;;5.40;79.60;;;;;;5038813;28;20461;-50
2022/01/28 04:39:34;;;;;;;4.33;1.80;;;5.40;79.00;;;;;;5040433;28;20554;-50
2022/01/28 04:42:16;;;;;;;13.63;1.67;;;5.40;79.10;;;;;;5032505;28;20454;-50
2022/01/28 04:47:32;;;;;;;8.30;2.43;;;5.40;78.30;;;;;;5040768;28;21019;-50
2022/01/28 04:50:18;;;;;;;2.70;1.70;;;5.40;78.30;;;;;;5038238;28;20478;-50
2022/01/28 05:27:02;;;;;;;4.30;1.73;;;5.50;78.40;;;;;;5043928;28;20495;-50
2022/01/28 05:29:30;;;;;;;5.53;1.80;;;5.50;78.80;;;;;;5037328;28;20850;-50
2022/01/28 05:31:56;;;;;;;4.33;1.50;;;5.50;78.80;;;;;;5041377;28;20459;-50
2022/01/28 05:34:25;;;;;;;8.27;2.40;;;5.50;79.10;;;;;;5029028;28;20469;-50
2022/01/28 05:36:52;;;;;;;3.77;1.93;;;5.60;79.00;;;;;;5037971;28;20521;-50
2022/01/28 05:39:20;;;;;;;4.40;1.90;;;5.60;79.00;;;;;;5027755;28;20967;-50
2022/01/28 05:41:47;;;;;;;4.10;1.67;;;5.60;79.30;;;;;;5043824;28;20828;-50
2022/01/28 05:44:13;;;;;;;8.70;1.80;;;5.50;79.30;;;;;;5034183;28;20465;-50
2022/01/28 05:46:40;;;;;;;6.20;1.53;;;5.60;79.20;;;;;;5041554;28;20885;-50
2022/01/28 05:49:08;;;;;;;5.20;2.00;;;5.60;79.30;;;;;;5037877;28;21015;-50
2022/01/28 05:51:34;;;;;;;6.70;2.50;;;5.60;78.60;;;;;;5039956;28;20814;-50
2022/01/28 05:54:01;;;;;;;7.10;2.00;;;5.60;79.00;;;;;;5038907;28;20462;-50
2022/01/28 05:56:28;;;;;;;6.10;1.80;;;5.60;78.50;;;;;;5021631;28;20542;-50
2022/01/28 05:58:55;;;;;;;9.60;2.00;;;5.60;78.40;;;;;;5038902;28;20455;-50
2022/01/28 06:01:22;;;;;;;5.43;1.60;;;5.60;78.20;;;;;;5037114;28;20477;-50
2022/01/28 06:03:49;;;;;;;2.90;1.80;;;5.60;77.60;;;;;;5038969;28;20459;-50
2022/01/28 06:06:21;;;;;;;2.63;1.33;;;5.60;77.60;;;;;;5055925;28;20490;-50
2022/01/28 06:08:50;;;;;;;5.43;2.00;;;5.60;77.90;;;;;;5055833;28;20451;-50
2022/01/28 06:11:17;;;;;;;4.60;1.90;;;5.60;77.60;;;;;;5043408;28;20692;-50
2022/01/28 06:13:44;;;;;;;4.23;2.33;;;5.60;78.10;;;;;;5042836;28;20462;-50
2022/01/28 06:16:12;;;;;;;2.30;2.00;;;5.60;77.90;;;;;;5041539;28;20451;-50
2022/01/28 06:18:40;;;;;;;2.97;1.67;;;5.60;78.00;;;;;;5044608;28;20461;-50
2022/01/28 06:21:07;;;;;;;3.07;1.30;;;5.60;77.90;;;;;;5031872;28;20534;-50
2022/01/28 06:23:35;;;;;;;5.60;1.97;;;5.60;77.70;;;;;;5041556;28;20579;-50
2022/01/28 06:26:03;;;;;;;4.57;1.83;;;5.60;77.50;;;;;;5042131;28;20961;-50
2022/01/28 06:28:31;;;;;;;2.00;1.30;;;5.70;77.20;;;;;;5029147;28;20869;-50
2022/01/28 06:30:58;;;;;;;4.43;1.60;;;5.70;77.20;;;;;;5042346;28;20461;-50
2022/01/28 06:33:25;;;;;;;12.70;3.40;;;5.70;77.60;;;;;;5031557;28;20586;-50
2022/01/28 06:35:52;;;;;;;4.87;1.47;;;5.70;77.10;;;;;;5043954;28;20446;-50
2022/01/28 06:38:20;;;;;;;6.97;2.10;;;5.70;77.20;;;;;;5039200;28;20462;-50
2022/01/28 06:40:49;;;;;;;5.40;1.90;;;5.70;77.30;;;;;;5040486;28;21040;-50
2022/01/28 06:43:16;;;;;;;5.90;1.93;;;5.60;77.50;;;;;;5009677;28;20458;-50
2022/01/28 06:45:43;;;;;;;2.90;1.23;;;5.60;77.50;;;;;;5057208;28;20459;-50
2022/01/28 06:48:15;;;;;;;4.37;2.10;;;5.70;77.50;;;;;;5042943;28;20546;-50
2022/01/28 06:50:43;;;;;;;4.63;1.77;;;5.70;77.20;;;;;;5039212;28;20455;-50
2022/01/28 06:53:12;;;;;;;6.93;3.00;;;5.70;77.40;;;;;;5041834;28;20555;-50
2022/01/28 06:55:40;;;;;;;8.53;3.00;;;5.70;77.00;;;;;;5045616;28;20459;-50
2022/01/28 06:58:08;;;;;;;9.47;2.90;;;5.70;77.20;;;;;;5036028;28;20457;-50
2022/01/28 07:00:37;;;;;;;6.87;2.67;;;5.70;77.30;;;;;;5041952;28;20460;-50
2022/01/28 07:03:10;;;;;;;4.33;2.47;;;5.70;77.30;;;;;;5041949;28;20454;-50
2022/01/28 07:05:37;;;;;;;6.20;1.80;;;5.70;77.60;;;;;;5039572;28;20882;-50
2022/01/28 07:08:05;;;;;;;5.00;1.73;;;5.80;77.50;;;;;;5038862;28;20492;-50
2022/01/28 07:10:33;;;;;;;4.83;1.47;;;5.80;77.40;;;;;;5027608;28;21014;-50
2022/01/28 07:13:01;;;;;;;7.33;3.03;;;5.80;77.30;;;;;;5042404;28;20829;-50
2022/01/28 07:15:29;;;;;;;7.40;2.10;;;5.80;77.40;;;;;;5042210;28;20451;-50
2022/01/28 07:18:03;;;;;;;7.20;2.23;;;5.80;77.80;;;;;;5056865;28;20486;-50
2022/01/28 07:20:31;;;;;;;10.53;1.93;;;5.80;77.60;;;;;;5059730;28;20583;-50
2022/01/28 07:22:59;;;;;;;3.80;2.20;;;5.80;77.40;;;;;;5039700;28;20474;-50
2022/01/28 07:25:26;;;;;;;9.13;2.13;;;5.80;77.30;;;;;;5043155;28;20469;-50
2022/01/28 07:27:53;;;;;;;4.93;2.83;;;5.80;77.60;;;;;;5039401;28;20529;-50
2022/01/28 07:30:20;;;;;;;5.40;2.40;;;5.80;77.80;;;;;;5043746;28;20474;-50
2022/01/28 07:32:49;;;;;;;2.10;1.67;;;5.80;77.40;;;;;;5042279;28;20803;-50
2022/01/28 07:35:16;;;;;;;4.20;1.73;;;5.80;77.60;;;;;;5007277;28;20496;-50
2022/01/28 07:37:43;;;;;;;5.83;2.13;;;5.80;77.80;;;;;;5047732;28;21016;-50
2022/01/28 07:40:11;;;;;;;5.47;2.10;;;5.80;78.10;;;;;;5036907;28;20459;-50
2022/01/28 07:42:38;;;;;;;11.63;3.00;;;5.80;78.10;;;;;;5041246;28;20554;-50
2022/01/28 07:45:07;;;;;;;4.37;1.60;;;5.90;77.80;;;;;;5055977;28;20469;-50
2022/01/28 07:47:37;;;;;;;7.23;2.10;;;5.90;77.80;;;;;;5009868;28;20503;-50
2022/01/28 07:50:06;;;;;;;7.13;2.50;;;5.90;77.80;;;;;;5039484;28;20799;-50
2022/01/28 07:52:33;;;;;;;4.20;1.90;;;5.90;77.60;;;;;;5025730;28;20476;-50
2022/01/28 07:55:00;;;;;;;6.73;1.90;;;6.00;77.50;;;;;;5041191;28;20461;-50
2022/01/28 07:57:27;;;;;;;6.17;2.83;;;6.00;77.40;;;;;;5043099;28;20451;-50
2022/01/28 07:59:54;;;;;;;3.10;1.40;;;6.10;77.30;;;;;;5037302;28;20469;-50
2022/01/28 08:02:21;;;;;;;3.83;1.80;;;6.10;76.80;;;;;;5028738;28;20493;-50
2022/01/28 08:04:48;;;;;;;5.57;1.83;;;6.10;76.80;;;;;;5036773;28;20463;-50
2022/01/28 08:07:15;;;;;;;7.80;2.60;;;6.10;76.90;;;;;;5039387;28;21046;-51
2022/01/28 08:09:42;;;;;;;5.03;1.47;;;6.10;76.60;;;;;;5043821;28;20504;-51
2022/01/28 08:12:09;;;;;;;3.17;2.10;;;6.10;76.20;;;;;;5042352;28;20463;-51
2022/01/28 08:14:36;;;;;;;3.67;2.40;;;6.20;76.50;;;;;;5044176;28;20457;-50
2022/01/28 08:17:03;;;;;;;7.20;2.80;;;6.20;76.80;;;;;;5045421;28;20677;-52
2022/01/28 08:19:32;;;;;;;6.33;2.10;;;6.20;76.90;;;;;;5047152;28;20459;-51
2022/01/28 08:21:59;;;;;;;11.43;3.30;;;6.20;77.00;;;;;;5042749;28;20458;-52
2022/01/28 08:24:26;;;;;;;8.70;2.90;;;6.20;77.10;;;;;;5042990;28;20483;-50
2022/01/28 08:26:53;;;;;;;7.90;2.80;;;6.20;77.20;;;;;;5042965;28;21129;-50
2022/01/28 08:29:21;;;;;;;7.33;2.40;;;6.20;77.20;;;;;;5044644;28;20468;-51
2022/01/28 08:31:47;;;;;;;3.27;2.10;;;6.30;77.10;;;;;;5045072;28;20794;-51
2022/01/28 08:34:18;;;;;;;3.80;2.20;;;6.30;77.50;;;;;;5032059;28;20489;-53
2022/01/28 08:36:44;;;;;;;5.47;2.77;;;6.30;77.70;;;;;;5044756;28;20462;-51
2022/01/28 08:39:12;;;;;;;7.37;2.97;;;6.30;77.80;;;;;;5042564;28;20458;-50
2022/01/28 08:41:40;;;;;;;3.97;2.60;;;6.30;78.00;;;;;;5029462;28;20834;-50
2022/01/28 08:44:07;;;;;;;3.00;1.60;;;6.40;77.20;;;;;;5043595;28;20463;-50
2022/01/28 08:46:34;;;;;;;4.97;1.77;;;6.40;77.10;;;;;;5033551;28;20461;-51
2022/01/28 08:49:03;;;;;;;8.00;3.07;;;6.40;77.00;;;;;;5041423;28;20454;-51
2022/01/28 08:51:35;;;;;;;5.10;2.07;;;6.40;77.40;;;;;;5031501;28;20465;-51
2022/01/28 08:54:02;;;;;;;7.20;2.40;;;6.40;77.10;;;;;;5041678;28;20463;-51
2022/01/28 08:56:29;;;;;;;5.93;3.33;;;6.40;77.10;;;;;;5008752;28;20947;-50
2022/01/28 08:58:56;;;;;;;3.50;2.20;;;6.40;77.00;;;;;;5032289;28;20815;-50
2022/01/28 09:01:23;;;;;;;7.17;3.27;;;6.50;76.80;;;;;;5058048;28;20900;-50
2022/01/28 09:03:52;;;;;;;5.30;2.20;;;6.50;76.30;;;;;;5043786;28;20462;-50
2022/01/28 09:06:18;;;;;;;3.93;2.20;;;6.50;76.00;;;;;;5037554;28;20553;-50
2022/01/28 09:08:47;;;;;;;7.93;3.17;;;6.50;75.20;;;;;;5042085;28;20465;-49
2022/01/28 09:13:52;;;;;;;6.50;2.20;;;6.50;75.90;;;;;;5054879;28;20827;-50
2022/01/28 09:16:21;;;;;;;6.90;2.57;;;6.50;75.60;;;;;;5041954;28;20505;-50
2022/01/28 09:18:48;;;;;;;3.57;1.73;;;6.60;74.90;;;;;;5039573;28;21006;-50
2022/01/28 09:21:15;;;;;;;4.37;2.20;;;6.60;75.20;;;;;;5020804;28;20465;-50
2022/01/28 09:23:42;;;;;;;5.03;1.93;;;6.60;75.30;;;;;;5032130;28;20481;-50
2022/01/28 09:26:09;;;;;;;6.50;2.00;;;6.70;75.00;;;;;;5041850;28;20824;-50
2022/01/28 09:28:35;;;;;;;2.93;1.70;;;6.80;74.20;;;;;;5034592;28;20557;-50
2022/01/28 09:31:04;;;;;;;4.67;2.03;;;6.80;74.20;;;;;;5042946;28;21124;-50
2022/01/28 09:33:31;;;;;;;6.13;1.97;;;6.90;74.30;;;;;;5014949;28;20454;-50
2022/01/28 09:35:58;;;;;;;5.37;1.97;;;6.80;74.40;;;;;;5039413;28;20482;-50
2022/01/28 09:38:25;;;;;;;5.43;2.27;;;6.80;74.70;;;;;;5042601;28;20553;-50
2022/01/28 09:40:52;;;;;;;3.23;1.97;;;6.80;74.70;;;;;;5042582;28;20455;-51
2022/01/28 09:43:19;;;;;;;5.90;2.37;;;6.80;74.40;;;;;;5042451;28;20574;-50
2022/01/28 09:45:48;;;;;;;4.80;2.00;;;6.90;74.20;;;;;;5043999;28;20463;-50
2022/01/28 09:48:18;;;;;;;7.37;2.53;;;6.90;74.10;;;;;;5030052;28;20483;-50
2022/01/28 09:50:46;;;;;;;4.30;2.27;;;6.90;74.00;;;;;;5055108;28;20951;-51
2022/01/28 09:53:14;;;;;;;4.77;1.87;;;6.90;73.90;;;;;;5041302;28;20834;-50
2022/01/28 09:55:43;;;;;;;9.33;1.97;;;7.00;74.40;;;;;;5037971;28;20523;-51
2022/01/28 09:58:11;;;;;;;6.50;2.00;;;7.00;74.30;;;;;;5029786;28;20550;-51
2022/01/28 10:00:37;;;;;;;6.73;1.90;;;7.10;74.10;;;;;;5041500;28;20558;-50
2022/01/28 10:03:09;;;;;;;2.80;1.77;;;7.10;74.80;;;;;;5038393;28;20467;-50
2022/01/28 10:05:50;;;;;;;6.87;2.67;;;7.10;74.80;;;;;;5039655;28;20525;-50
2022/01/28 10:08:20;;;;;;;4.23;1.97;;;7.10;75.10;;;;;;5040696;28;20504;-51
2022/01/28 10:11:05;;;;;;;4.53;1.80;;;7.10;75.00;;;;;;5055202;28;20455;-50
2022/01/28 10:13:51;;;;;;;4.93;3.23;;;7.10;75.50;;;;;;5039898;28;20459;-50
2022/01/28 10:16:26;;;;;;;3.80;1.50;;;7.00;76.10;;;;;;5043009;28;20987;-50
2022/01/28 10:19:13;;;;;;;3.83;2.60;;;7.00;76.70;;;;;;5038993;28;20963;-50
2022/01/28 10:21:43;;;;;;;10.53;2.50;;;7.00;77.30;;;;;;5043019;28;20467;-50
2022/01/28 10:24:24;;;;;;;5.80;2.10;;;6.90;77.40;;;;;;5042330;28;20495;-50
2022/01/28 10:27:05;;;;;;;4.80;2.30;;;7.00;78.20;;;;;;5048284;28;20463;-50
2022/01/28 10:29:40;;;;;;;6.90;2.50;;;7.10;78.40;;;;;;5039245;28;20464;-50
2022/01/28 10:32:15;;;;;;;3.10;1.90;;;7.20;77.30;;;;;;5040071;28;20461;-50
2022/01/28 10:34:46;;;;;;;7.47;2.70;;;7.30;76.70;;;;;;5039651;28;20464;-50
2022/01/28 10:37:18;;;;;;;7.10;1.70;;;7.40;77.70;;;;;;5025611;28;20467;-51
2022/01/28 10:39:51;;;;;;;6.30;3.30;;;7.40;77.10;;;;;;5040055;28;20865;-50
2022/01/28 10:42:21;;;;;;;8.53;2.00;;;7.40;77.40;;;;;;5054090;28;20459;-50
2022/01/28 10:45:22;;;;;;;5.80;2.90;;;7.60;76.60;;;;;;5056722;28;20462;-50
2022/01/28 10:47:55;;;;;;;8.53;2.30;;;7.70;76.30;;;;;;4996729;28;20551;-51
2022/01/28 10:50:26;;;;;;;4.00;2.13;;;7.80;75.80;;;;;;5040262;28;20542;-51
2022/01/28 10:53:06;;;;;;;5.67;2.73;;;7.90;75.10;;;;;;5041013;28;20459;-50
2022/01/28 10:55:57;;;;;;;8.93;2.70;;;8.00;73.50;;;;;;5042073;28;20469;-51
2022/01/28 10:58:26;;;;;;;9.37;2.63;;;8.10;71.80;;;;;;5034325;28;20462;-50
2022/01/28 11:00:58;;;;;;;8.90;2.17;;;8.10;71.90;;;;;;5039866;28;20983;-50
2022/01/28 11:03:27;;;;;;;5.20;2.10;;;8.20;70.70;;;;;;5039234;28;20506;-50
2022/01/28 11:06:01;;;;;;;3.13;1.80;;;8.20;70.10;;;;;;5054696;28;20477;-50
2022/01/28 11:08:31;;;;;;;6.70;2.20;;;8.10;70.30;;;;;;5040541;28;21151;-50
2022/01/28 11:10:59;;;;;;;3.00;2.00;;;8.10;69.10;;;;;;5025506;28;20459;-50
2022/01/28 11:13:27;;;;;;;6.60;2.00;;;8.10;69.40;;;;;;5043026;28;20538;-51
2022/01/28 11:15:54;;;;;;;4.20;2.40;;;8.10;68.90;;;;;;5026330;28;20970;-50
2022/01/28 11:18:22;;;;;;;5.40;2.70;;;8.20;68.10;;;;;;5025168;28;20464;-51
2022/01/28 11:20:53;;;;;;;5.50;2.00;;;8.20;68.20;;;;;;5042795;28;20459;-50
2022/01/28 11:23:56;;;;;;;7.30;2.30;;;8.20;68.60;;;;;;5022615;28;20478;-50
2022/01/28 11:26:35;;;;;;;6.03;1.87;;;8.20;68.50;;;;;;5039326;28;20463;-50
2022/01/28 11:29:12;;;;;;;3.53;2.40;;;8.30;68.60;;;;;;5039730;28;20566;-50
2022/01/28 11:31:51;;;;;;;5.50;2.70;;;8.30;68.40;;;;;;5022230;28;20465;-50
2022/01/28 11:34:24;;;;;;;7.73;1.97;;;8.30;68.40;;;;;;5039924;28;20840;-50
2022/01/28 11:36:54;;;;;;;3.30;2.10;;;8.30;68.80;;;;;;5040446;28;20542;-50
2022/01/28 11:39:37;;;;;;;2.10;1.87;;;8.30;69.10;;;;;;5038076;28;20462;-51
2022/01/28 11:42:23;;;;;;;5.80;2.97;;;8.30;69.40;;;;;;5042208;28;20995;-51
2022/01/28 11:44:54;;;;;;;6.30;2.50;;;8.20;68.80;;;;;;5025833;28;20461;-51
2022/01/28 11:47:24;;;;;;;6.27;1.90;;;8.20;68.80;;;;;;5043437;28;20519;-51
2022/01/28 11:50:15;;;;;;;5.23;2.87;;;8.20;68.60;;;;;;5026860;28;20459;-51
2022/01/28 11:52:49;;;;;;;5.73;2.63;;;8.10;67.20;;;;;;5035455;28;20995;-51
2022/01/28 11:55:25;;;;;;;2.80;1.80;;;8.10;66.80;;;;;;5038756;28;20451;-51
2022/01/28 11:57:57;;;;;;;7.47;2.57;;;8.00;66.80;;;;;;5042477;28;20520;-51
2022/01/28 12:00:29;;;;;;;9.27;2.80;;;8.00;67.20;;;;;;5039924;28;20493;-51
2022/01/28 12:02:56;;;;;;;6.03;2.80;;;8.00;67.20;;;;;;5038251;28;20467;-50
2022/01/28 12:05:32;;;;;;;3.90;2.47;;;8.00;67.40;;;;;;5057175;28;20470;-51
2022/01/28 12:08:04;;;;;;;7.30;2.50;;;8.10;67.70;;;;;;5038710;28;20496;-51
2022/01/28 12:10:35;;;;;;;4.07;2.30;;;8.20;67.70;;;;;;5021987;28;20875;-51
2022/01/28 12:13:06;;;;;;;5.73;2.80;;;8.30;67.30;;;;;;5037942;28;20491;-51
2022/01/28 12:16:30;;;;;;;3.47;2.37;;;8.40;67.40;;;;;;5022311;28;20461;-50
2022/01/28 12:18:53;;;;;;;10.40;2.57;;;8.60;66.80;;;;;;5036090;28;20846;-50
2022/01/28 12:21:29;;;;;;;5.80;2.30;;;8.70;66.20;;;;;;5021071;28;20490;-50
2022/01/28 12:24:21;;;;;;;9.13;2.90;;;8.80;65.70;;;;;;5036194;28;20501;-51
2022/01/28 12:27:18;;;;;;;4.60;2.00;;;8.80;64.80;;;;;;5038183;28;20446;-51
2022/01/28 12:29:50;;;;;;;5.70;1.83;;;8.80;64.00;;;;;;5041262;28;20466;-51
2022/01/28 12:32:22;;;;;;;5.70;2.23;;;8.80;63.30;;;;;;5041679;28;20879;-48
2022/01/28 12:34:50;;;;;;;7.10;1.77;;;8.80;62.60;;;;;;5034187;28;20485;-48
2022/01/28 12:37:22;;;;;;;2.93;1.67;;;8.80;62.10;;;;;;5038860;28;20466;-48
2022/01/28 12:39:56;;;;;;;9.03;2.97;;;8.80;62.70;;;;;;5040392;28;20817;-48
2022/01/28 12:42:23;;;;;;;4.00;1.53;;;8.80;62.90;;;;;;5042147;28;20975;-48
2022/01/28 12:45:00;;;;;;;6.53;2.50;;;8.90;61.90;;;;;;5036997;28;20493;-48
2022/01/28 12:47:33;;;;;;;3.60;2.07;;;8.90;61.50;;;;;;5037635;28;20964;-48
2022/01/28 12:50:03;;;;;;;3.90;1.73;;;8.90;61.50;;;;;;5055546;28;20545;-48
2022/01/28 12:52:31;;;;;;;7.83;2.63;;;8.90;61.90;;;;;;5029561;28;20525;-48
2022/01/28 12:54:58;;;;;;;6.63;2.20;;;8.90;62.20;;;;;;5045153;28;22353;-48
2022/01/28 12:57:26;;;;;;;5.73;2.23;;;9.10;61.90;;;;;;5043612;28;20537;-48
2022/01/28 12:59:52;;;;;;;8.07;1.63;;;9.20;61.60;;;;;;5044830;28;20450;-48
2022/01/28 13:02:20;;;;;;;5.87;2.30;;;9.30;61.50;;;;;;5046500;28;20457;-48
2022/01/28 13:10:33;;;;;;;9.40;2.10;;;9.60;60.00;;;;;;5024245;28;20490;-47
2022/01/28 13:13:07;;;;;;;6.63;1.70;;;9.60;60.40;;;;;;5037691;28;20573;-48
2022/01/28 13:15:35;;;;;;;7.10;2.20;;;9.70;60.20;;;;;;5028409;28;20546;-49
2022/01/28 13:18:03;;;;;;;5.03;1.80;;;9.80;60.40;;;;;;5058613;28;20466;-48
2022/01/28 13:20:36;;;;;;;10.10;2.30;;;9.80;59.50;;;;;;5040292;28;20546;-47
2022/01/28 13:23:03;;;;;;;7.23;1.40;;;9.90;59.10;;;;;;5040979;28;20478;-48
2022/01/28 13:25:30;;;;;;;5.03;1.60;;;9.90;59.00;;;;;;5041736;28;20456;-47
2022/01/28 13:28:03;;;;;;;4.30;1.57;;;9.90;59.80;;;;;;5039938;28;21006;-47
2022/01/28 13:30:35;;;;;;;3.73;1.33;;;10.00;59.70;;;;;;5027904;28;20541;-47
2022/01/28 13:33:05;;;;;;;7.23;1.90;;;10.00;58.50;;;;;;5028099;28;20538;-47
2022/01/28 13:35:33;;;;;;;6.37;2.10;;;10.00;59.50;;;;;;5041187;28;20495;-47
2022/01/28 13:38:06;;;;;;;8.47;1.50;;;10.10;59.30;;;;;;5038873;28;20498;-47
2022/01/28 13:40:35;;;;;;;6.63;1.40;;;10.10;57.90;;;;;;5040388;28;20467;-47
2022/01/28 13:43:23;;;;;;;1.87;1.10;;;10.10;57.80;;;;;;5036257;28;20481;-47
2022/01/28 13:45:58;;;;;;;6.57;3.00;;;10.10;57.70;;;;;;5044883;28;20461;-47
2022/01/28 13:48:34;;;;;;;9.10;1.50;;;10.00;57.60;;;;;;5038554;28;20593;-47
2022/01/28 13:51:05;;;;;;;3.53;2.03;;;9.90;58.20;;;;;;5036770;28;20801;-47
2022/01/28 13:54:15;;;;;;;4.20;1.67;;;9.80;57.60;;;;;;5040076;28;20457;-47
2022/01/28 13:56:44;;;;;;;5.30;1.47;;;9.70;58.40;;;;;;5038050;28;20883;-47
2022/01/28 13:59:16;;;;;;;4.53;2.00;;;9.60;59.30;;;;;;5056918;28;20462;-47
2022/01/28 14:01:45;;;;;;;4.20;1.17;;;9.50;59.80;;;;;;5039728;28;20622;-47
2022/01/28 14:04:24;;;;;;;3.40;2.23;;;9.40;60.70;;;;;;5036039;28;20569;-47
2022/01/28 14:07:10;;;;;;;2.40;1.43;;;9.40;59.70;;;;;;5042085;28;20539;-47
2022/01/28 14:09:46;;;;;;;8.27;2.80;;;9.40;60.40;;;;;;5053843;28;20534;-47
2022/01/28 14:12:49;;;;;;;3.80;1.93;;;9.40;59.80;;;;;;5044952;28;20459;-47
2022/01/28 14:17:57;;;;;;;7.70;1.60;;;9.40;59.70;;;;;;5044211;28;20469;-48
2022/01/28 14:20:24;;;;;;;4.80;1.53;;;9.40;59.30;;;;;;5030230;28;20451;-48
2022/01/28 14:22:51;;;;;;;2.60;1.40;;;9.40;59.90;;;;;;5040680;28;20474;-48
2022/01/28 14:25:18;;;;;;;3.20;1.30;;;9.30;59.60;;;;;;5030121;28;20831;-48
2022/01/28 14:27:59;;;;;;;3.50;1.50;;;9.20;58.90;;;;;;5040783;28;20533;-48
2022/01/28 14:30:38;;;;;;;5.07;1.40;;;9.20;59.90;;;;;;5041868;28;20499;-48
2022/01/28 14:33:06;;;;;;;4.23;1.10;;;9.20;58.70;;;;;;5012352;28;20864;-48
2022/01/28 14:35:35;;;;;;;4.73;1.93;;;9.10;58.90;;;;;;5032283;28;20457;-48
2022/01/28 14:38:05;;;;;;;4.97;1.77;;;9.00;59.60;;;;;;5012496;28;20483;-48
2022/01/28 14:40:32;;;;;;;5.80;2.30;;;9.00;59.50;;;;;;5040123;28;20440;-48
2022/01/28 14:42:59;;;;;;;4.37;1.77;;;9.00;59.30;;;;;;5054943;28;20452;-48
2022/01/28 14:45:26;;;;;;;2.10;1.33;;;9.00;59.20;;;;;;5040689;28;20458;-48
2022/01/28 14:47:53;;;;;;;5.17;1.27;;;9.00;60.00;;;;;;5029152;28;20460;-48
2022/01/28 14:50:20;;;;;;;19.90;2.23;;;9.00;60.80;;;;;;5031869;28;20449;-48
2022/01/28 14:52:46;;;;;;;4.80;1.97;;;9.00;59.70;;;;;;5027926;28;20472;-48
2022/01/28 14:55:13;;;;;;;1.97;0.90;;;9.00;59.50;;;;;;5036558;28;20548;-48
2022/01/28 14:57:41;;;;;;;2.60;1.07;;;9.00;59.30;;;;;;5039402;28;20447;-48
2022/01/28 15:00:09;;;;;;;2.83;1.60;;;9.00;58.40;;;;;;5037770;28;20458;-47
2022/01/28 15:02:36;;;;;;;3.90;1.50;;;9.00;59.30;;;;;;5055179;28;20842;-47